TimePDT,TemperatureF,Dew PointF,Humidity,Sea Level PressureIn,VisibilityMPH,Wind Direction,Wind SpeedMPH,Gust SpeedMPH,PrecipitationIn,Events,Conditions,WindDirDegrees,DateUTC
12:56 AM,77.0,34.0,21,29.94,10.0,WSW,5.8,-,N/A,,Clear,240,2012-10-05 07:56:00
1:56 AM,75.9,35.1,23,29.94,10.0,WSW,11.5,-,N/A,,Clear,240,2012-10-05 08:56:00
2:56 AM,73.0,32.0,22,29.92,10.0,West,6.9,-,N/A,,Clear,260,2012-10-05 09:56:00
3:56 AM,72.0,34.0,25,29.92,10.0,WSW,9.2,-,N/A,,Clear,240,2012-10-05 10:56:00
4:56 AM,68.0,35.1,30,29.94,10.0,Calm,Calm,-,N/A,,Clear,0,2012-10-05 11:56:00
5:56 AM,64.9,37.0,36,29.94,10.0,SE,4.6,-,N/A,,Clear,140,2012-10-05 12:56:00
6:56 AM,66.0,36.0,33,29.96,10.0,Calm,Calm,-,N/A,,Partly Cloudy,0,2012-10-05 13:56:00
7:56 AM,70.0,44.1,39,29.98,10.0,SSE,3.5,-,N/A,,Partly Cloudy,160,2012-10-05 14:56:00
8:56 AM,78.1,44.1,30,29.98,10.0,South,4.6,-,N/A,,Scattered Clouds,190,2012-10-05 15:56:00
9:56 AM,82.9,46.0,27,29.99,10.0,Calm,Calm,-,N/A,,Scattered Clouds,0,2012-10-05 16:56:00
10:56 AM,88.0,48.0,25,29.98,10.0,Calm,Calm,-,N/A,,Scattered Clouds,0,2012-10-05 17:56:00
11:56 AM,91.0,42.1,18,29.96,10.0,Calm,Calm,-,N/A,,Scattered Clouds,0,2012-10-05 18:56:00
12:56 PM,93.0,42.1,17,29.92,10.0,Calm,Calm,-,N/A,,Scattered Clouds,0,2012-10-05 19:56:00
1:56 PM,93.0,41.0,16,29.89,10.0,Calm,Calm,-,N/A,,Scattered Clouds,0,2012-10-05 20:56:00
2:56 PM,93.9,43.0,17,29.87,10.0,East,3.5,-,N/A,,Scattered Clouds,100,2012-10-05 21:56:00
3:56 PM,93.9,42.1,17,29.86,10.0,East,3.5,-,N/A,,Mostly Cloudy,90,2012-10-05 22:56:00
4:56 PM,93.0,42.1,17,29.85,10.0,Calm,Calm,-,N/A,,Scattered Clouds,0,2012-10-05 23:56:00
5:56 PM,91.0,43.0,19,29.84,10.0,NE,4.6,-,N/A,,Scattered Clouds,40,2012-10-06 00:56:00
6:56 PM,84.0,45.0,25,29.85,10.0,Calm,Calm,-,N/A,,Clear,0,2012-10-06 01:56:00
7:56 PM,84.0,41.0,22,29.86,10.0,West,8.1,-,N/A,,Clear,270,2012-10-06 02:56:00
8:56 PM,82.0,45.0,27,29.86,10.0,WSW,10.4,-,N/A,,Clear,240,2012-10-06 03:56:00
9:56 PM,78.1,44.1,30,29.87,10.0,WSW,8.1,-,N/A,,Clear,250,2012-10-06 04:56:00
10:56 PM,75.9,43.0,31,29.88,10.0,WSW,9.2,-,N/A,,Clear,250,2012-10-06 05:56:00
11:56 PM,79.0,39.0,24,29.87,10.0,West,11.5,-,N/A,,Clear,260,2012-10-06 06:56:00